createdAt,value
2018-04-17T00:00:12.885Z,99400.70
2018-04-17T00:02:41.249Z,99397.31
2018-04-17T00:05:09.878Z,99366.56
2018-04-17T00:07:38.308Z,99400.34
2018-04-17T00:10:10.979Z,99401.29
2018-04-17T00:12:39.373Z,99403.52
2018-04-17T00:15:15.296Z,99296.53
2018-04-17T00:17:43.688Z,99412.53
2018-04-17T00:20:12.430Z,99425.45
2018-04-17T00:22:40.569Z,99415.82
2018-04-17T00:25:12.963Z,99419.41
2018-04-17T00:27:41.361Z,99423.13
2018-04-17T00:30:13.057Z,99337.23
2018-04-17T00:32:41.438Z,99438.35
2018-04-17T00:35:09.809Z,99446.39
2018-04-17T00:37:38.168Z,99448.75
2018-04-17T00:40:15.354Z,99448.92
2018-04-17T00:42:43.725Z,99447.91
2018-04-17T00:45:15.712Z,99446.88
2018-04-17T00:47:44.081Z,99449.21
2018-04-17T00:50:14.237Z,99455.49
2018-04-17T00:52:42.626Z,99463.52
2018-04-17T00:55:10.777Z,99464.17
2018-04-17T00:57:39.138Z,99463.77
2018-04-17T01:00:13.467Z,99353.37
2018-04-17T01:02:42.477Z,99473.16
2018-04-17T01:05:11.822Z,99466.91
2018-04-17T01:07:40.195Z,99469.04
2018-04-17T01:10:16.045Z,99469.64
2018-04-17T01:12:44.457Z,99473.99
2018-04-17T01:15:12.832Z,99475.98
2018-04-17T01:17:41.201Z,99484.74
2018-04-17T01:20:11.166Z,99445.09
2018-04-17T01:22:39.539Z,99486.36
2018-04-17T01:25:14.733Z,99435.89
2018-04-17T01:27:43.124Z,99476.58
2018-04-17T01:30:16.354Z,99483.06
2018-04-17T01:32:44.723Z,99482.09
2018-04-17T01:35:17.199Z,99480.82
2018-04-17T01:37:46.357Z,99485.12
2018-04-17T01:40:14.723Z,99404.95
2018-04-17T01:42:43.101Z,99497.63
2018-04-17T01:45:16.158Z,99498.00
2018-04-17T01:47:44.533Z,99488.66
2018-04-17T01:50:14.562Z,99498.44
2018-04-17T01:52:42.973Z,99502.36
2018-04-17T01:55:16.138Z,99509.85
2018-04-17T01:57:44.527Z,99513.68
2018-04-17T02:00:16.543Z,99514.79
2018-04-17T02:02:44.930Z,99524.64
2018-04-17T02:05:14.225Z,99417.91
2018-04-17T02:07:42.604Z,99519.77
2018-04-17T02:10:12.690Z,99397.20
2018-04-17T02:12:41.065Z,99519.98
2018-04-17T02:15:13.962Z,99512.84
2018-04-17T02:17:42.145Z,99525.30
2018-04-17T02:20:17.314Z,99524.48
2018-04-17T02:22:45.723Z,99521.08
2018-04-17T02:25:14.109Z,99526.57
2018-04-17T02:27:42.496Z,99527.89
2018-04-17T02:30:15.886Z,99523.92
2018-04-17T02:32:44.283Z,99529.03
2018-04-17T02:35:16.137Z,99527.24
2018-04-17T02:37:44.767Z,99529.22
2018-04-17T02:40:14.760Z,99527.84
2018-04-17T02:42:43.158Z,99530.16
2018-04-17T02:45:11.553Z,99529.51
2018-04-17T02:47:39.934Z,99521.77
2018-04-17T02:50:10.428Z,99531.99
2018-04-17T02:52:38.818Z,99524.50
2018-04-17T02:55:12.834Z,99533.83
2018-04-17T02:57:41.232Z,99480.95
2018-04-17T03:00:14.987Z,99525.09
2018-04-17T03:02:43.457Z,99523.47
2018-04-17T03:05:15.760Z,99518.73
2018-04-17T03:07:44.146Z,99526.98
2018-04-17T03:10:15.718Z,99526.25
2018-04-17T03:12:44.097Z,99518.49
2018-04-17T03:15:16.946Z,99432.13
2018-04-17T03:17:45.329Z,99525.19
2018-04-17T03:20:16.139Z,99523.44
2018-04-17T03:22:44.510Z,99539.81
2018-04-17T03:25:16.922Z,99532.70
2018-04-17T03:27:45.301Z,99534.01
2018-04-17T03:30:16.555Z,99537.33
2018-04-17T03:32:44.922Z,99529.75
2018-04-17T03:35:15.960Z,99465.66
2018-04-17T03:37:44.346Z,99540.39
2018-04-17T03:40:16.093Z,99535.17
2018-04-17T03:42:44.485Z,99539.50
2018-04-17T03:45:17.012Z,99550.53
2018-04-17T03:47:45.400Z,99545.97
2018-04-17T03:50:13.769Z,99563.06
2018-04-17T03:52:42.148Z,99566.78
2018-04-17T03:55:15.549Z,99570.70
2018-04-17T03:57:43.916Z,99572.00
2018-04-17T04:00:12.959Z,99573.84
2018-04-17T04:02:41.346Z,99585.70
2018-04-17T04:05:16.516Z,99593.14
2018-04-17T04:07:44.909Z,99598.00
2018-04-17T04:10:16.610Z,99599.81
2018-04-17T04:12:46.469Z,99602.41
2018-04-17T04:15:16.018Z,99607.08
2018-04-17T04:17:55.594Z,99612.06
2018-04-17T04:20:35.151Z,99614.15
2018-04-17T04:23:14.556Z,99613.77
2018-04-17T04:28:54.800Z,99620.21
2018-04-17T04:31:23.201Z,99618.89
2018-04-17T04:33:51.790Z,99622.12
2018-04-17T04:36:20.164Z,99631.82
2018-04-17T04:38:48.569Z,99627.11
2018-04-17T04:41:16.969Z,99631.44
2018-04-17T04:43:45.373Z,99640.70
2018-04-17T04:46:13.776Z,99636.13
2018-04-17T04:48:42.807Z,99642.43
2018-04-17T04:51:10.940Z,99646.69
2018-04-17T04:53:39.321Z,99650.97
2018-04-17T04:56:07.700Z,99654.77
2018-04-17T04:58:36.075Z,99655.63
2018-04-17T05:01:07.777Z,99656.07
2018-04-17T05:03:36.159Z,99662.26
2018-04-17T05:06:05.172Z,99669.64
2018-04-17T05:08:33.561Z,99667.86
2018-04-17T05:11:01.960Z,99672.29
2018-04-17T05:13:30.373Z,99674.50
2018-04-17T05:15:58.750Z,99670.95
2018-04-17T05:18:27.162Z,99682.66
2018-04-17T05:20:55.734Z,99682.80
2018-04-17T05:23:24.117Z,99672.94
2018-04-17T05:25:52.505Z,99681.63
2018-04-17T05:28:20.882Z,99685.86
2018-04-17T05:30:49.288Z,99686.52
2018-04-17T05:33:17.677Z,99688.05
2018-04-17T05:35:46.056Z,99698.30
2018-04-17T05:38:14.437Z,99698.14
2018-04-17T05:40:42.833Z,99703.86
2018-04-17T05:43:11.257Z,99704.46
2018-04-17T05:45:39.634Z,99707.44
2018-04-17T05:48:08.872Z,99713.48
2018-04-17T05:50:37.246Z,99714.30
2018-04-17T05:53:05.610Z,99709.17
2018-04-17T05:55:36.331Z,99710.76
2018-04-17T05:58:04.393Z,99711.90
2018-04-17T06:00:32.770Z,99720.45
2018-04-17T06:03:01.561Z,99733.81
2018-04-17T06:05:30.714Z,99731.33
2018-04-17T06:07:59.273Z,99729.25
2018-04-17T06:10:27.679Z,99723.87
2018-04-17T06:12:56.056Z,99732.23
2018-04-17T06:15:24.439Z,99738.24
2018-04-17T06:17:52.841Z,99733.07
2018-04-17T06:20:20.980Z,99734.28
2018-04-17T06:22:49.354Z,99733.71
2018-04-17T06:25:17.728Z,99737.27
2018-04-17T06:27:46.109Z,99742.09
2018-04-17T06:30:14.509Z,99736.14
2018-04-17T06:32:42.897Z,99726.48
2018-04-17T06:35:11.287Z,99737.39
2018-04-17T06:37:39.725Z,99736.39
2018-04-17T06:40:15.275Z,99738.50
2018-04-17T06:42:43.650Z,99728.02
2018-04-17T06:45:12.010Z,99737.72
2018-04-17T06:47:40.471Z,99749.14
2018-04-17T06:50:17.609Z,99743.24
2018-04-17T06:52:46.008Z,99753.51
2018-04-17T06:55:16.947Z,99751.44
2018-04-17T06:57:45.325Z,99758.45
2018-04-17T07:00:13.501Z,99749.83
2018-04-17T07:06:12.791Z,99775.80
2018-04-17T07:08:41.170Z,99764.87
2018-04-17T07:11:09.589Z,99779.58
2018-04-17T07:13:38.113Z,99776.05
2018-04-17T07:16:06.486Z,99784.16
2018-04-17T07:18:34.889Z,99781.88
2018-04-17T07:21:03.268Z,99786.39
2018-04-17T07:23:31.637Z,99787.05
2018-04-17T07:26:00.109Z,99793.99
2018-04-17T07:28:28.694Z,99792.65
2018-04-17T07:30:57.069Z,99794.64
2018-04-17T07:33:25.449Z,99797.28
2018-04-17T07:35:53.828Z,99808.09
2018-04-17T07:38:22.220Z,99804.98
2018-04-17T07:40:50.587Z,99812.23
2018-04-17T07:43:18.958Z,99814.66
2018-04-17T07:45:47.321Z,99815.64
2018-04-17T07:48:26.685Z,99832.15
2018-04-17T07:50:55.071Z,99840.97
2018-04-17T07:53:23.444Z,99833.05
2018-04-17T07:55:51.822Z,99843.97
2018-04-17T07:58:20.195Z,99843.08
2018-04-17T08:00:48.578Z,99774.56
2018-04-17T08:03:16.976Z,99822.45
2018-04-17T08:05:45.344Z,99839.95
2018-04-17T08:08:13.716Z,99845.41
2018-04-17T08:10:42.091Z,99847.16
2018-04-17T08:13:10.456Z,99844.33
2018-04-17T08:15:38.822Z,99842.28
2018-04-17T08:18:07.371Z,99850.81
2018-04-17T08:20:35.757Z,99847.02
2018-04-17T08:23:04.142Z,99854.00
2018-04-17T08:25:32.527Z,99850.20
2018-04-17T08:28:00.888Z,99858.48
2018-04-17T08:30:29.267Z,99860.73
2018-04-17T08:32:57.640Z,99854.61
2018-04-17T08:35:26.011Z,99867.89
2018-04-17T08:37:54.388Z,99874.50
2018-04-17T08:40:22.753Z,99876.68
2018-04-17T08:42:51.129Z,99868.73
2018-04-17T08:45:19.510Z,99869.88
2018-04-17T08:47:47.887Z,99859.40
2018-04-17T08:50:16.258Z,99878.06
2018-04-17T08:52:44.631Z,99891.24
2018-04-17T08:55:13.022Z,99866.28
2018-04-17T08:57:41.386Z,99882.36
2018-04-17T09:00:11.426Z,99879.06
2018-04-17T09:02:39.798Z,99878.23
2018-04-17T09:05:15.221Z,99879.16
2018-04-17T09:07:43.765Z,99875.14
2018-04-17T09:10:17.556Z,99761.40
2018-04-17T09:12:45.738Z,99868.73
2018-04-17T09:15:14.132Z,99798.81
2018-04-17T09:17:42.543Z,99881.35
2018-04-17T09:20:17.026Z,99890.64
2018-04-17T09:22:45.402Z,99900.52
2018-04-17T09:25:13.782Z,99872.58
2018-04-17T09:27:42.167Z,99905.06
2018-04-17T09:30:16.152Z,99832.78
2018-04-17T09:32:44.523Z,99884.33
2018-04-17T09:35:16.416Z,99891.92
2018-04-17T09:37:44.804Z,99890.34
2018-04-17T09:40:17.552Z,99898.62
2018-04-17T09:42:46.852Z,99888.79
2018-04-17T09:45:15.232Z,99901.91
2018-04-17T09:47:43.606Z,99904.04
2018-04-17T09:50:16.364Z,99785.28
2018-04-17T09:52:44.754Z,99895.83
2018-04-17T09:55:13.144Z,99894.69
2018-04-17T09:57:41.509Z,99893.25
2018-04-17T10:00:16.513Z,99887.40
2018-04-17T10:02:44.892Z,99890.63
2018-04-17T10:05:13.293Z,99891.38
2018-04-17T10:07:41.675Z,99888.88
2018-04-17T10:10:15.501Z,99832.24
2018-04-17T10:12:43.879Z,99883.02
2018-04-17T10:15:17.064Z,99883.73
2018-04-17T10:17:45.447Z,99872.56
2018-04-17T10:20:15.305Z,99879.45
2018-04-17T10:22:43.698Z,99883.86
2018-04-17T10:25:12.849Z,99777.83
2018-04-17T10:27:41.228Z,99888.46
2018-04-17T10:30:12.686Z,99870.64
2018-04-17T10:32:41.063Z,99884.89
2018-04-17T10:35:12.233Z,99883.16
2018-04-17T10:37:40.601Z,99870.26
2018-04-17T10:40:12.340Z,99882.34
2018-04-17T10:42:40.588Z,99874.30
2018-04-17T10:45:15.485Z,99888.33
2018-04-17T10:47:43.857Z,99862.71
2018-04-17T10:50:16.309Z,99875.78
2018-04-17T10:52:44.682Z,99870.78
2018-04-17T10:55:12.864Z,99857.75
2018-04-17T10:57:41.512Z,99861.22
2018-04-17T11:00:16.106Z,99865.91
2018-04-17T11:02:44.477Z,99869.25
2018-04-17T11:05:16.701Z,99763.52
2018-04-17T11:07:45.077Z,99868.95
2018-04-17T11:10:16.302Z,99860.73
2018-04-17T11:12:44.665Z,99865.14
2018-04-17T11:15:13.302Z,99863.09
2018-04-17T11:17:41.688Z,99863.87
2018-04-17T11:20:15.746Z,99868.94
2018-04-17T11:22:44.120Z,99875.59
2018-04-17T11:25:13.755Z,99873.39
2018-04-17T11:27:42.133Z,99867.78
2018-04-17T11:30:22.715Z,99872.16
2018-04-17T11:32:51.108Z,99866.38
2018-04-17T11:35:19.497Z,99860.68
2018-04-17T11:37:47.895Z,99869.83
2018-04-17T11:40:17.140Z,99768.02
2018-04-17T11:42:45.514Z,99880.43
2018-04-17T11:45:13.895Z,99875.41
2018-04-17T11:47:42.297Z,99865.64
2018-04-17T11:50:11.545Z,99889.11
2018-04-17T11:52:39.918Z,99893.45
2018-04-17T11:55:09.826Z,99890.88
2018-04-17T11:57:38.213Z,99886.68
2018-04-17T12:00:09.392Z,99842.39
2018-04-17T12:02:37.769Z,99884.28
2018-04-17T12:05:12.325Z,99884.02
2018-04-17T12:07:40.861Z,99881.61
2018-04-17T12:10:15.233Z,99871.34
2018-04-17T12:12:43.380Z,99871.50
2018-04-17T12:15:11.757Z,99868.41
2018-04-17T12:17:40.156Z,99892.20
2018-04-17T12:20:10.817Z,99858.34
2018-04-17T12:22:39.212Z,99876.98
2018-04-17T12:25:07.596Z,99860.76
2018-04-17T12:27:35.957Z,99872.53
2018-04-17T12:30:04.762Z,99876.06
2018-04-17T12:32:34.940Z,99858.98
2018-04-17T12:35:03.313Z,99870.00
2018-04-17T12:37:31.689Z,99869.61
2018-04-17T12:40:00.061Z,99878.20
2018-04-17T12:42:28.424Z,99869.98
2018-04-17T12:44:56.808Z,99880.64
2018-04-17T12:47:25.176Z,99870.83
2018-04-17T12:49:53.570Z,99858.10
2018-04-17T12:52:21.933Z,99866.89
2018-04-17T12:54:50.302Z,99862.80
2018-04-17T12:57:18.725Z,99871.95
2018-04-17T12:59:47.309Z,99878.17
2018-04-17T13:02:15.684Z,99871.20
2018-04-17T13:04:44.042Z,99867.80
2018-04-17T13:07:12.487Z,99873.76
2018-04-17T13:09:40.861Z,99871.82
2018-04-17T13:12:09.237Z,99868.34
2018-04-17T13:14:37.601Z,99863.64
2018-04-17T13:17:06.001Z,99862.88
2018-04-17T13:19:34.379Z,99872.20
2018-04-17T13:22:02.774Z,99874.14
2018-04-17T13:24:30.980Z,99867.97
2018-04-17T13:26:59.360Z,99864.02
2018-04-17T13:29:27.724Z,99874.73
2018-04-17T13:31:56.094Z,99879.23
2018-04-17T13:34:24.469Z,99867.12
2018-04-17T13:36:52.834Z,99847.89
2018-04-17T13:39:21.222Z,99868.11
2018-04-17T13:41:49.592Z,99868.57
2018-04-17T13:44:17.976Z,99879.48
2018-04-17T13:46:46.353Z,99841.25
2018-04-17T13:49:14.728Z,99868.28
2018-04-17T13:51:43.101Z,99870.17
2018-04-17T13:54:11.541Z,99867.43
2018-04-17T13:56:40.051Z,99857.23
2018-04-17T13:59:08.420Z,99857.73
2018-04-17T14:01:36.783Z,99867.84
2018-04-17T14:04:04.842Z,99862.36
2018-04-17T14:06:33.623Z,99848.72
2018-04-17T14:09:02.165Z,99849.68
2018-04-17T14:11:30.565Z,99868.83
2018-04-17T14:13:58.943Z,99863.33
2018-04-17T14:16:27.358Z,99859.57
2018-04-17T14:18:55.724Z,99864.36
2018-04-17T14:21:24.115Z,99862.78
2018-04-17T14:23:52.476Z,99856.59
2018-04-17T14:26:20.873Z,99857.22
2018-04-17T14:28:49.246Z,99856.63
2018-04-17T14:31:17.642Z,99862.42
2018-04-17T14:33:46.007Z,99852.68
2018-04-17T14:36:14.384Z,99855.75
2018-04-17T14:38:42.745Z,99858.13
2018-04-17T14:41:11.117Z,99861.13
2018-04-17T14:43:39.541Z,99861.04
2018-04-17T14:46:08.073Z,99856.47
2018-04-17T14:48:36.221Z,99839.16
2018-04-17T14:51:04.629Z,99868.11
2018-04-17T14:53:33.037Z,99872.84
2018-04-17T14:56:01.459Z,99868.88
2018-04-17T14:58:29.864Z,99872.06
2018-04-17T15:00:58.239Z,99853.38
2018-04-17T15:03:26.671Z,99860.19
2018-04-17T15:05:55.178Z,99871.04
2018-04-17T15:08:23.796Z,99872.00
2018-04-17T15:10:51.892Z,99875.45
2018-04-17T15:13:20.249Z,99872.52
2018-04-17T15:15:48.629Z,99875.42
2018-04-17T15:18:17.000Z,99881.33
2018-04-17T15:20:45.384Z,99889.25
2018-04-17T15:23:13.761Z,99872.80
2018-04-17T15:25:42.131Z,99893.09
2018-04-17T15:28:10.508Z,99899.69
2018-04-17T15:30:38.886Z,99896.86
2018-04-17T15:33:07.261Z,99888.58
2018-04-17T15:35:36.292Z,99889.30
2018-04-17T15:38:04.682Z,99895.27
2018-04-17T15:40:33.091Z,99896.13
2018-04-17T15:43:01.471Z,99895.47
2018-04-17T15:45:29.852Z,99889.23
2018-04-17T15:47:58.450Z,99892.25
2018-04-17T15:50:26.666Z,99896.13
2018-04-17T15:52:55.053Z,99897.78
2018-04-17T15:55:24.365Z,99902.37
2018-04-17T15:57:53.017Z,99901.09
2018-04-17T16:00:21.404Z,99906.81
2018-04-17T16:02:49.950Z,99903.27
2018-04-17T16:05:18.335Z,99904.44
2018-04-17T16:07:46.771Z,99906.61
2018-04-17T16:10:16.844Z,99907.75
2018-04-17T16:12:45.252Z,99916.25
2018-04-17T16:15:13.629Z,99914.26
2018-04-17T16:17:42.022Z,99915.78
2018-04-17T16:20:16.597Z,99915.13
2018-04-17T16:22:45.031Z,99906.02
2018-04-17T16:25:16.337Z,99917.81
2018-04-17T16:27:45.055Z,99918.06
2018-04-17T16:30:17.638Z,99927.54
2018-04-17T16:32:46.016Z,99926.02
2018-04-17T16:35:17.264Z,99924.42
2018-04-17T16:37:45.396Z,99928.30
2018-04-17T16:40:17.378Z,99919.66
2018-04-17T16:42:45.776Z,99925.87
2018-04-17T16:45:16.799Z,99921.61
2018-04-17T16:47:45.185Z,99924.90
2018-04-17T16:50:13.554Z,99927.33
2018-04-17T16:52:41.931Z,99928.19
2018-04-17T16:55:16.290Z,99923.52
2018-04-17T16:57:44.657Z,99927.25
2018-04-17T17:00:15.279Z,99928.98
2018-04-17T17:02:43.647Z,99924.41
2018-04-17T17:05:17.457Z,99848.77
2018-04-17T17:07:46.037Z,99936.65
2018-04-17T17:10:15.245Z,99940.84
2018-04-17T17:12:43.663Z,99942.72
2018-04-17T17:15:15.769Z,99938.38
2018-04-17T17:17:44.181Z,99947.48
2018-04-17T17:20:16.639Z,99944.26
2018-04-17T17:22:45.018Z,99951.69
2018-04-17T17:25:17.738Z,99959.36
2018-04-17T17:27:46.126Z,99963.45
2018-04-17T17:30:22.814Z,99971.33
2018-04-17T17:32:51.272Z,99976.05
2018-04-17T17:35:19.436Z,99974.40
2018-04-17T17:37:47.832Z,99986.45
2018-04-17T17:40:16.972Z,99986.12
2018-04-17T17:42:45.999Z,99985.45
2018-04-17T17:45:16.186Z,99921.86
